Cincinnati, Ohio
Traffic Map
Current Weather Conditions
Cincinnati, Ohio
Clear
Clear
45°
Feels Like: 45°
Wind Chill: 45° Ceiling: Unl
Heat Index: 45° Visibility: 10mi
Dew Point: 37° Wind: 3mph
Humidity: 74% Direction: ° ()
Pressure: 29.78in Gusts: 0mph
Raw Report DataKLUK 230153Z VRB03KT 10SM CLR 07/03 A2978 RMK AO2 SLP088 T00720028
Traffic Incident Summary
Active as of:
Severity:
Category:
InformationThere was an issue retrieving the traffic information for this location. Please try a different location or try again shortly.
Advertisements
Track Severe Weather on mobile